N152CD KSYR-KMCI
Flight info
| Callsign | N152CD |
|---|---|
| Flight time | N/A |
| Altitude | 40000 |
| Route | SYR DINES CHAAP RBS SPI EUING RUDDH3 |
| Aircraft | C750/M-SBDE3FGHRWXY/S |
Departure
| Time | 2026-04-21 15:17 |
|---|---|
| Airport | Syracuse Hancock International Airport (KSYR) |
Arrival
| Time | N/A |
|---|---|
| Airport | Kansas City International Airport (KMCI) |
| Time | Latitude | Longitude | Altitude | Speed | Heading |
|---|---|---|---|---|---|
| 2026-04-21 14:46 | 43.11158 | -76.13062 | 415 ft | 0 kts | 207° |
| 2026-04-21 15:13 | 43.11157 | -76.13062 | 439 ft | 0 kts | 207° |
| 2026-04-21 15:13 | 43.11133 | -76.13077 | 413 ft | 7 kts | 202° |
| 2026-04-21 15:13 | 43.11081 | -76.13088 | 421 ft | 5 kts | 164° |
| 2026-04-21 15:13 | 43.11051 | -76.13064 | 421 ft | 6 kts | 145° |
| 2026-04-21 15:14 | 43.11010 | -76.13015 | 421 ft | 10 kts | 139° |
| 2026-04-21 15:14 | 43.10947 | -76.12940 | 415 ft | 14 kts | 133° |
| 2026-04-21 15:14 | 43.10937 | -76.12855 | 421 ft | 7 kts | 87° |
| 2026-04-21 15:14 | 43.10939 | -76.12779 | 421 ft | 9 kts | 88° |
| 2026-04-21 15:15 | 43.10942 | -76.12694 | 421 ft | 9 kts | 87° |
| 2026-04-21 15:15 | 43.10927 | -76.12635 | 414 ft | 4 kts | 159° |
| 2026-04-21 15:15 | 43.10896 | -76.12631 | 418 ft | 5 kts | 174° |
| 2026-04-21 15:15 | 43.10868 | -76.12614 | 415 ft | 6 kts | 149° |
| 2026-04-21 15:16 | 43.10825 | -76.12557 | 421 ft | 11 kts | 108° |
| 2026-04-21 15:16 | 43.10829 | -76.12408 | 422 ft | 32 kts | 88° |
| 2026-04-21 15:16 | 43.10853 | -76.11632 | 421 ft | 128 kts | 88° |
| 2026-04-21 15:16 | 43.10894 | -76.10307 | 839 ft | 148 kts | 91° |
| 2026-04-21 15:17 | 43.10933 | -76.08776 | 1232 ft | 175 kts | 92° |
| 2026-04-21 15:17 | 43.10957 | -76.06958 | 1674 ft | 205 kts | 92° |
| 2026-04-21 15:17 | 43.11438 | -76.04958 | 1987 ft | 246 kts | 56° |
| 2026-04-21 15:17 | 43.12922 | -76.03653 | 2601 ft | 265 kts | 14° |
| 2026-04-21 15:18 | 43.14723 | -76.03892 | 3595 ft | 263 kts | 334° |
| 2026-04-21 15:18 | 43.16020 | -76.05537 | 4606 ft | 254 kts | 296° |
| 2026-04-21 15:18 | 43.16382 | -76.07788 | 5821 ft | 243 kts | 274° |
| 2026-04-21 15:18 | 43.16497 | -76.10122 | 6743 ft | 251 kts | 277° |
| 2026-04-21 15:19 | 43.16786 | -76.12478 | 7849 ft | 248 kts | 283° |
| 2026-04-21 15:19 | 43.17168 | -76.14768 | 9076 ft | 246 kts | 285° |
| 2026-04-21 15:19 | 43.17521 | -76.17048 | 10233 ft | 245 kts | 284° |
| 2026-04-21 15:19 | 43.17866 | -76.19425 | 10676 ft | 267 kts | 284° |
| 2026-04-21 15:20 | 43.18250 | -76.22044 | 10816 ft | 295 kts | 284° |
| 2026-04-21 15:20 | 43.18668 | -76.24882 | 11288 ft | 307 kts | 284° |
| 2026-04-21 15:20 | 43.19083 | -76.27734 | 12161 ft | 307 kts | 284° |
| 2026-04-21 15:20 | 43.19508 | -76.30628 | 12919 ft | 310 kts | 285° |
| 2026-04-21 15:21 | 43.19936 | -76.33541 | 13683 ft | 313 kts | 285° |
| 2026-04-21 15:21 | 43.20366 | -76.36483 | 14397 ft | 317 kts | 285° |
| 2026-04-21 15:21 | 43.20801 | -76.39460 | 15058 ft | 320 kts | 285° |
| 2026-04-21 15:21 | 43.21237 | -76.42458 | 15723 ft | 322 kts | 286° |
| 2026-04-21 15:22 | 43.21678 | -76.45487 | 16400 ft | 325 kts | 286° |
| 2026-04-21 15:22 | 43.22121 | -76.48542 | 17092 ft | 328 kts | 286° |
| 2026-04-21 15:22 | 43.22568 | -76.51627 | 17776 ft | 332 kts | 287° |
| 2026-04-21 15:22 | 43.23019 | -76.54745 | 18507 ft | 336 kts | 287° |
| 2026-04-21 15:23 | 43.23475 | -76.57905 | 19189 ft | 339 kts | 287° |
| 2026-04-21 15:23 | 43.23932 | -76.61081 | 19886 ft | 341 kts | 287° |
| 2026-04-21 15:23 | 43.24392 | -76.64282 | 20581 ft | 344 kts | 287° |
| 2026-04-21 15:23 | 43.24698 | -76.66416 | 21067 ft | 345 kts | 287° |
| 2026-04-21 15:24 | 43.25161 | -76.69655 | 21799 ft | 347 kts | 287° |
| 2026-04-21 15:24 | 43.25627 | -76.72918 | 22467 ft | 350 kts | 287° |
| 2026-04-21 15:24 | 43.26098 | -76.76214 | 23133 ft | 353 kts | 287° |
| 2026-04-21 15:24 | 43.26570 | -76.79538 | 23788 ft | 357 kts | 287° |
| 2026-04-21 15:25 | 43.27046 | -76.82892 | 24340 ft | 360 kts | 287° |